Time;durP1;ratioP1;P1;durP2;ratioP2;P2;SDS_P1;SDS_P2;PMS_P1;PMS_P2;Temp;Humidity;BMP_temperature;BMP_pressure;BME280_temperature;BME280_humidity;BME280_pressure;Samples;Min_cycle;Max_cycle;Signal;HPM_P1;HPM_P2
2022/11/17 00:01:59;;;;;;;26.20;19.38;;;8.40;99.90;;;;;;5057843;28;20032;-65
2022/11/17 00:04:27;;;;;;;26.98;19.45;;;8.40;99.90;;;;;;5059794;28;20041;-65
2022/11/17 00:06:53;;;;;;;28.65;19.30;;;8.40;99.90;;;;;;5047269;28;20048;-65
2022/11/17 00:09:19;;;;;;;28.98;19.65;;;8.40;99.90;;;;;;5059336;28;20029;-64
2022/11/17 00:14:31;;;;;;;25.77;19.48;;;8.50;99.90;;;;;;5060982;28;20049;-64
2022/11/17 00:16:57;;;;;;;25.83;18.10;;;8.50;99.90;;;;;;5061417;28;20040;-66
2022/11/17 00:22:07;;;;;;;27.92;18.55;;;8.50;99.90;;;;;;5057670;28;20385;-64
2022/11/17 00:24:33;;;;;;;25.52;18.70;;;8.60;99.90;;;;;;5062300;28;20040;-64
2022/11/17 00:27:02;;;;;;;24.65;18.40;;;8.50;99.90;;;;;;5058978;28;20119;-64
2022/11/17 00:29:28;;;;;;;23.20;16.60;;;8.50;99.90;;;;;;5061014;28;20488;-63
2022/11/17 00:34:39;;;;;;;21.85;16.98;;;8.60;99.90;;;;;;5061798;28;20041;-63
2022/11/17 00:37:05;;;;;;;27.35;18.42;;;8.60;99.90;;;;;;5064780;28;20029;-64
2022/11/17 00:39:32;;;;;;;22.40;18.05;;;8.60;99.90;;;;;;5061683;28;20389;-64
2022/11/17 00:41:58;;;;;;;23.65;17.63;;;8.60;99.90;;;;;;5060260;28;20444;-64
2022/11/17 00:44:24;;;;;;;27.42;17.77;;;8.60;99.90;;;;;;5061768;28;20075;-64
2022/11/17 00:46:50;;;;;;;20.35;17.25;;;8.60;99.90;;;;;;5062403;28;20182;-63
2022/11/17 00:49:15;;;;;;;22.83;17.40;;;8.60;99.90;;;;;;5057776;28;20037;-63
2022/11/17 00:51:41;;;;;;;20.17;16.15;;;8.50;99.90;;;;;;5057242;28;20040;-65
2022/11/17 00:54:10;;;;;;;19.80;15.63;;;8.60;99.90;;;;;;5063087;28;20095;-63
2022/11/17 00:56:36;;;;;;;22.15;15.73;;;8.70;99.90;;;;;;5059220;28;20063;-66
2022/11/17 00:59:02;;;;;;;20.75;14.70;;;8.60;99.90;;;;;;5058855;28;20048;-64
2022/11/17 01:01:29;;;;;;;23.30;15.57;;;8.60;99.90;;;;;;5057527;28;20433;-64
2022/11/17 01:04:01;;;;;;;21.30;15.57;;;8.60;99.90;;;;;;5061048;28;20472;-64
2022/11/17 01:06:34;;;;;;;20.70;16.02;;;8.60;99.90;;;;;;5035920;28;20516;-64
2022/11/17 01:09:02;;;;;;;20.02;15.88;;;8.50;99.90;;;;;;5062679;28;20063;-64
2022/11/17 01:11:28;;;;;;;18.65;14.27;;;8.60;99.90;;;;;;5044623;28;20049;-65
2022/11/17 01:13:55;;;;;;;20.15;14.95;;;8.60;99.90;;;;;;5057965;28;20460;-64
2022/11/17 01:16:22;;;;;;;19.55;15.52;;;8.60;99.90;;;;;;5056842;28;20086;-64
2022/11/17 01:18:49;;;;;;;18.00;13.85;;;8.60;99.90;;;;;;5057883;28;20124;-64
2022/11/17 01:21:24;;;;;;;16.33;13.77;;;8.70;99.90;;;;;;5067120;28;20029;-64
2022/11/17 01:23:51;;;;;;;;;;;8.60;99.90;;;;;;5057438;28;20550;-65
2022/11/17 01:26:19;;;;;;;17.77;12.82;;;8.60;99.90;;;;;;5063419;28;20108;-64
2022/11/17 01:28:46;;;;;;;19.58;14.77;;;8.60;99.90;;;;;;5061060;28;20060;-63
2022/11/17 01:31:20;;;;;;;15.20;13.20;;;8.60;99.90;;;;;;5062842;28;20116;-65
2022/11/17 01:33:46;;;;;;;17.53;13.33;;;8.60;99.90;;;;;;5055438;28;20048;-64
2022/11/17 01:36:13;;;;;;;14.40;12.85;;;8.70;99.90;;;;;;5064271;28;20045;-65
2022/11/17 01:38:39;;;;;;;19.55;14.30;;;8.70;99.90;;;;;;5042443;28;20048;-64
2022/11/17 01:41:08;;;;;;;17.25;13.63;;;8.70;99.90;;;;;;5059499;28;20098;-65
2022/11/17 01:43:57;;;;;;;18.08;12.23;;;8.60;99.90;;;;;;5062570;28;20108;-65
2022/11/17 01:46:37;;;;;;;16.70;12.57;;;8.70;99.90;;;;;;5049700;28;20083;-65
2022/11/17 01:49:19;;;;;;;14.90;11.60;;;8.60;99.90;;;;;;5056548;28;20052;-64
2022/11/17 01:51:50;;;;;;;15.30;13.20;;;8.70;99.90;;;;;;5045148;28;20409;-64
2022/11/17 01:54:19;;;;;;;15.23;12.45;;;8.70;99.90;;;;;;5055096;28;20060;-64
2022/11/17 01:56:49;;;;;;;14.95;11.73;;;8.70;99.90;;;;;;5060458;28;20154;-66
2022/11/17 01:59:24;;;;;;;16.90;12.13;;;8.70;99.90;;;;;;5039421;28;20510;-65
2022/11/17 02:01:55;;;;;;;;;;;8.70;99.90;;;;;;5059692;28;20048;-63
2022/11/17 02:04:39;;;;;;;15.35;12.73;;;8.70;99.90;;;;;;5054052;28;20016;-65
2022/11/17 02:07:16;;;;;;;17.65;12.82;;;8.60;99.90;;;;;;5045119;28;20481;-65
2022/11/17 02:09:42;;;;;;;15.93;11.52;;;8.70;99.90;;;;;;5056785;28;20052;-64
2022/11/17 02:12:11;;;;;;;16.08;12.15;;;8.60;99.90;;;;;;5062267;28;20115;-65
2022/11/17 02:14:38;;;;;;;14.68;12.20;;;8.60;99.90;;;;;;5057980;28;20447;-65
2022/11/17 02:17:06;;;;;;;15.82;12.55;;;8.60;99.90;;;;;;5041194;28;20044;-65
2022/11/17 02:19:36;;;;;;;16.50;13.40;;;8.60;99.90;;;;;;5063407;28;20059;-64
2022/11/17 02:22:16;;;;;;;16.38;13.07;;;8.50;99.90;;;;;;5061687;28;20044;-65
2022/11/17 02:24:54;;;;;;;18.73;13.63;;;8.50;99.90;;;;;;5041772;28;20193;-67
2022/11/17 02:27:41;;;;;;;17.52;13.15;;;8.50;99.90;;;;;;5044728;28;20079;-66
2022/11/17 02:30:10;;;;;;;16.55;13.43;;;8.40;99.90;;;;;;5039658;28;20045;-67
2022/11/17 02:32:42;;;;;;;20.70;14.65;;;8.30;99.90;;;;;;5062922;28;20581;-65
2022/11/17 02:35:34;;;;;;;17.67;13.55;;;8.30;99.90;;;;;;5059339;28;20496;-67
2022/11/17 02:38:24;;;;;;;15.85;12.13;;;8.30;99.90;;;;;;5062996;28;20080;-68
2022/11/17 02:41:12;;;;;;;17.30;14.35;;;8.30;99.90;;;;;;5054298;28;20037;-67
2022/11/17 02:44:03;;;;;;;21.33;14.75;;;8.20;99.90;;;;;;5062450;28;20052;-66
2022/11/17 02:46:51;;;;;;;22.92;14.50;;;8.30;99.90;;;;;;5051765;28;20071;-66
2022/11/17 02:49:23;;;;;;;19.17;13.82;;;8.30;99.90;;;;;;5059206;28;20041;-67
2022/11/17 02:51:52;;;;;;;18.05;14.98;;;8.30;99.90;;;;;;5058432;28;20044;-67
2022/11/17 02:54:20;;;;;;;21.58;15.35;;;8.20;99.90;;;;;;5042769;28;20144;-69
2022/11/17 02:56:45;;;;;;;19.40;14.90;;;8.20;99.90;;;;;;5056968;28;20036;-67
2022/11/17 02:59:15;;;;;;;18.42;14.55;;;8.20;99.90;;;;;;5046447;28;20045;-67
2022/11/17 03:02:02;;;;;;;20.90;15.30;;;8.20;99.90;;;;;;5036823;28;20079;-68
2022/11/17 03:04:45;;;;;;;19.40;15.30;;;8.10;99.90;;;;;;5057385;28;20052;-66
2022/11/17 03:07:34;;;;;;;19.85;14.70;;;8.20;99.90;;;;;;5056144;28;20106;-66
2022/11/17 03:10:25;;;;;;;19.92;14.73;;;8.10;99.90;;;;;;5057822;28;20550;-66
2022/11/17 03:13:00;;;;;;;20.20;15.13;;;8.10;99.90;;;;;;5056065;28;20040;-66
2022/11/17 03:15:49;;;;;;;23.27;15.15;;;8.10;99.90;;;;;;5041880;28;20152;-67
2022/11/17 03:18:19;;;;;;;19.10;14.50;;;8.10;99.90;;;;;;5060646;28;20037;-67
2022/11/17 03:21:03;;;;;;;19.15;14.98;;;8.10;99.90;;;;;;5056187;28;20100;-68
2022/11/17 03:23:38;;;;;;;20.00;15.93;;;8.10;99.90;;;;;;5039860;28;20052;-68
2022/11/17 03:26:10;;;;;;;18.42;14.98;;;8.10;99.90;;;;;;5044956;28;20040;-72
2022/11/17 03:28:38;;;;;;;20.50;14.40;;;8.00;99.90;;;;;;5038290;28;20048;-68
2022/11/17 03:31:08;;;;;;;24.67;15.80;;;8.10;99.90;;;;;;5040827;28;20040;-68
2022/11/17 03:33:36;;;;;;;20.75;14.15;;;8.00;99.90;;;;;;5043974;28;20110;-67
2022/11/17 03:36:14;;;;;;;19.88;14.70;;;8.10;99.90;;;;;;5055145;28;20037;-68
2022/11/17 03:38:45;;;;;;;18.73;14.85;;;8.10;99.90;;;;;;5046222;28;20170;-67
2022/11/17 03:41:14;;;;;;;19.30;13.82;;;8.10;99.90;;;;;;5047694;28;20072;-69
2022/11/17 03:43:43;;;;;;;21.75;14.48;;;8.00;99.90;;;;;;5049781;28;20068;-67
2022/11/17 03:46:14;;;;;;;15.88;14.18;;;8.10;99.90;;;;;;5038645;28;20155;-67
2022/11/17 03:48:49;;;;;;;16.98;13.60;;;8.10;99.90;;;;;;5043196;28;20094;-68
2022/11/17 03:51:19;;;;;;;16.65;13.57;;;8.10;99.90;;;;;;5043806;28;20388;-67
2022/11/17 03:53:46;;;;;;;17.42;13.75;;;8.00;99.90;;;;;;5037480;28;20048;-68
2022/11/17 03:56:15;;;;;;;16.50;13.18;;;8.00;99.90;;;;;;5060984;28;20037;-68
2022/11/17 03:58:55;;;;;;;17.13;13.35;;;8.00;99.90;;;;;;5061171;28;20044;-67
2022/11/17 04:01:22;;;;;;;18.13;13.63;;;8.00;99.90;;;;;;5045034;28;20036;-67
2022/11/17 04:03:47;;;;;;;15.48;12.05;;;8.00;99.90;;;;;;5041155;28;20040;-68
2022/11/17 04:06:13;;;;;;;18.17;12.80;;;8.00;99.90;;;;;;5042961;28;20045;-68
2022/11/17 04:08:39;;;;;;;18.05;12.95;;;8.00;99.90;;;;;;5052835;28;20058;-67
2022/11/17 04:16:33;;;;;;;15.52;12.48;;;7.90;99.90;;;;;;5060937;28;20051;-68
2022/11/17 04:18:59;;;;;;;15.85;12.25;;;7.90;99.90;;;;;;5044666;28;20044;-67
2022/11/17 04:21:25;;;;;;;16.85;11.98;;;7.90;99.90;;;;;;5046211;28;20037;-67
2022/11/17 04:23:50;;;;;;;17.17;11.38;;;7.90;99.90;;;;;;5058346;28;20036;-70
2022/11/17 04:29:00;;;;;;;17.58;12.45;;;7.90;99.90;;;;;;5045515;28;20144;-67
2022/11/17 04:31:28;;;;;;;14.02;11.02;;;7.80;99.90;;;;;;5060876;28;20033;-68
2022/11/17 04:33:56;;;;;;;14.35;10.60;;;7.80;99.90;;;;;;5049088;28;20462;-67
2022/11/17 04:36:24;;;;;;;16.13;12.25;;;7.80;99.90;;;;;;5047477;28;20059;-68
2022/11/17 04:38:53;;;;;;;14.27;10.93;;;7.80;99.90;;;;;;5063229;28;20114;-67
2022/11/17 04:44:05;;;;;;;11.23;9.95;;;7.80;99.90;;;;;;5046209;28;20168;-68
2022/11/17 04:46:33;;;;;;;13.65;10.82;;;7.80;99.90;;;;;;5054024;28;20060;-69
2022/11/17 04:48:59;;;;;;;14.80;11.15;;;7.80;99.90;;;;;;5059966;28;20041;-69
2022/11/17 04:51:25;;;;;;;13.23;11.13;;;7.80;99.90;;;;;;5042877;28;20412;-67
2022/11/17 04:53:51;;;;;;;12.80;9.65;;;7.80;99.90;;;;;;5042892;28;20395;-70
2022/11/17 04:56:22;;;;;;;12.48;10.43;;;7.80;99.90;;;;;;5046053;28;20044;-67
2022/11/17 04:58:48;;;;;;;13.40;11.80;;;7.80;99.90;;;;;;5048353;28;20143;-69
2022/11/17 05:01:16;;;;;;;13.23;11.15;;;7.70;99.90;;;;;;5040044;28;20540;-70
2022/11/17 05:03:46;;;;;;;15.38;11.00;;;7.70;99.90;;;;;;5045234;28;20120;-69
2022/11/17 05:06:21;;;;;;;11.02;9.93;;;7.70;99.90;;;;;;5037582;28;20116;-68
2022/11/17 05:08:47;;;;;;;12.00;9.65;;;7.70;99.90;;;;;;5043616;28;20082;-67
2022/11/17 05:13:59;;;;;;;11.40;9.95;;;7.80;99.90;;;;;;5047567;28;20048;-69
2022/11/17 05:19:16;;;;;;;11.10;10.00;;;7.70;99.90;;;;;;5061409;28;20066;-67
2022/11/17 05:21:42;;;;;;;10.95;8.65;;;7.70;99.90;;;;;;5037303;28;20047;-69
2022/11/17 05:24:08;;;;;;;10.98;9.82;;;7.70;99.90;;;;;;5045009;28;20481;-69
2022/11/17 05:26:37;;;;;;;10.45;8.98;;;7.60;99.90;;;;;;5031057;28;20059;-70
2022/11/17 05:29:05;;;;;;;10.45;9.43;;;7.60;99.90;;;;;;5046119;28;20044;-68
2022/11/17 05:31:31;;;;;;;10.63;9.52;;;7.50;99.90;;;;;;5042494;28;20105;-68
2022/11/17 05:33:57;;;;;;;9.80;8.82;;;7.50;99.90;;;;;;5063827;28;20454;-69
2022/11/17 05:36:24;;;;;;;9.07;8.20;;;7.50;99.90;;;;;;5059030;28;20125;-67
2022/11/17 05:38:51;;;;;;;9.55;8.55;;;7.50;99.90;;;;;;5026197;28;20036;-68
2022/11/17 05:41:17;;;;;;;10.50;9.25;;;7.50;99.90;;;;;;5041199;28;20032;-67
2022/11/17 05:43:43;;;;;;;9.45;8.52;;;7.40;99.90;;;;;;5056929;28;20044;-69
2022/11/17 05:46:09;;;;;;;10.18;8.30;;;7.40;99.90;;;;;;5047166;28;20098;-68
2022/11/17 05:48:35;;;;;;;12.48;9.55;;;7.40;99.90;;;;;;5046194;28;20124;-69
2022/11/17 05:51:01;;;;;;;10.15;9.05;;;7.30;99.90;;;;;;5039181;28;20135;-69
2022/11/17 05:53:29;;;;;;;11.23;9.98;;;7.30;99.90;;;;;;5029868;28;20036;-67
2022/11/17 05:56:20;;;;;;;10.35;9.13;;;7.40;99.90;;;;;;5046514;28;20109;-68
2022/11/17 05:58:51;;;;;;;9.77;8.77;;;7.40;99.90;;;;;;5024290;28;20067;-68
2022/11/17 06:01:19;;;;;;;10.63;8.65;;;7.30;99.90;;;;;;5058241;28;20489;-68
2022/11/17 06:03:53;;;;;;;9.75;8.75;;;7.30;99.90;;;;;;5040944;28;20189;-70
2022/11/17 06:06:20;;;;;;;10.68;9.38;;;7.30;99.90;;;;;;5059049;28;20036;-69
2022/11/17 06:08:46;;;;;;;11.18;10.07;;;7.30;99.90;;;;;;5060758;28;20060;-69
2022/11/17 06:11:13;;;;;;;11.05;9.95;;;7.30;99.90;;;;;;5040521;28;20488;-69
2022/11/17 06:13:38;;;;;;;10.00;8.85;;;7.20;99.90;;;;;;5058173;28;20041;-69
2022/11/17 06:16:06;;;;;;;10.30;9.20;;;7.10;99.90;;;;;;5043658;28;20480;-66
2022/11/17 06:18:46;;;;;;;9.20;8.30;;;7.10;99.90;;;;;;5057866;28;20050;-69
2022/11/17 06:21:14;;;;;;;8.15;7.10;;;7.10;99.90;;;;;;5059750;28;20029;-69
2022/11/17 06:23:41;;;;;;;9.93;8.93;;;7.10;99.90;;;;;;5061307;28;20055;-68
2022/11/17 06:26:08;;;;;;;10.70;9.57;;;7.10;99.90;;;;;;5052975;28;20085;-67
2022/11/17 06:28:37;;;;;;;10.65;8.30;;;7.10;99.90;;;;;;5038338;28;20467;-68
2022/11/17 06:31:05;;;;;;;10.35;9.27;;;7.00;99.90;;;;;;5041710;28;20148;-68
2022/11/17 06:33:31;;;;;;;9.32;8.32;;;7.00;99.90;;;;;;5045937;28;20056;-68
2022/11/17 06:35:59;;;;;;;8.98;7.97;;;7.00;99.90;;;;;;5046658;28;20040;-68
2022/11/17 06:38:25;;;;;;;9.48;7.57;;;7.00;99.90;;;;;;5061818;28;20484;-69
2022/11/17 06:40:51;;;;;;;11.25;8.40;;;6.90;99.90;;;;;;5060318;28;20106;-68
2022/11/17 06:43:17;;;;;;;8.60;7.50;;;7.00;99.90;;;;;;5058517;28;20037;-67
2022/11/17 06:45:44;;;;;;;8.05;7.13;;;7.00;99.90;;;;;;5028379;28;20032;-67
2022/11/17 06:48:12;;;;;;;9.10;7.50;;;7.00;99.90;;;;;;5059264;28;20060;-67
2022/11/17 06:50:38;;;;;;;9.05;8.15;;;7.00;99.90;;;;;;5035023;28;20178;-67
2022/11/17 06:53:06;;;;;;;8.07;7.28;;;7.00;99.90;;;;;;5057540;28;20040;-67
2022/11/17 06:55:33;;;;;;;9.60;8.23;;;7.00;99.90;;;;;;5045989;28;20163;-68
2022/11/17 06:58:01;;;;;;;8.15;7.25;;;7.00;99.90;;;;;;5039696;28;20559;-66
2022/11/17 07:00:27;;;;;;;8.07;7.22;;;7.00;99.90;;;;;;5050710;28;20049;-67
2022/11/17 07:02:59;;;;;;;8.70;7.80;;;7.00;99.90;;;;;;5033388;28;20048;-69
2022/11/17 07:05:25;;;;;;;10.20;8.27;;;7.00;99.90;;;;;;5039917;28;20116;-69
2022/11/17 07:07:57;;;;;;;8.05;7.35;;;7.00;99.90;;;;;;5045519;28;20521;-67
2022/11/17 07:10:24;;;;;;;8.32;7.53;;;7.00;99.90;;;;;;5056326;28;20128;-67
2022/11/17 07:12:49;;;;;;;8.32;6.93;;;6.90;99.90;;;;;;5043053;28;20111;-66
2022/11/17 07:15:15;;;;;;;8.38;7.47;;;6.90;99.90;;;;;;5037537;28;20049;-67
2022/11/17 07:17:41;;;;;;;8.55;7.72;;;6.90;99.90;;;;;;5063454;28;20040;-67
2022/11/17 07:20:10;;;;;;;8.38;7.57;;;6.90;99.90;;;;;;5042510;28;20116;-68
2022/11/17 07:22:37;;;;;;;7.47;6.55;;;6.90;99.90;;;;;;5040923;28;20048;-69
2022/11/17 07:25:06;;;;;;;7.47;6.57;;;6.90;99.90;;;;;;5048338;28;20094;-67
2022/11/17 07:27:31;;;;;;;8.38;7.25;;;7.00;99.90;;;;;;5042628;28;20043;-69
2022/11/17 07:29:57;;;;;;;8.07;7.28;;;7.00;99.90;;;;;;5042533;28;20033;-69
2022/11/17 07:32:23;;;;;;;9.65;7.15;;;7.00;99.90;;;;;;5048620;28;20055;-69
2022/11/17 07:34:49;;;;;;;7.47;6.78;;;7.00;99.90;;;;;;5047216;28;20452;-71
2022/11/17 07:37:15;;;;;;;7.10;6.40;;;7.10;99.90;;;;;;5048117;28;20434;-67
2022/11/17 07:39:42;;;;;;;7.80;7.07;;;7.10;99.90;;;;;;5056510;28;20079;-68
2022/11/17 07:42:10;;;;;;;7.07;6.38;;;7.00;99.90;;;;;;5044804;28;20093;-66
2022/11/17 07:44:35;;;;;;;7.13;6.43;;;7.10;99.90;;;;;;5042621;28;20044;-68
2022/11/17 07:47:01;;;;;;;7.38;6.60;;;7.10;99.90;;;;;;5044284;28;20028;-68
2022/11/17 07:49:27;;;;;;;7.47;6.22;;;7.00;99.90;;;;;;5065981;28;20045;-66
2022/11/17 07:51:53;;;;;;;6.40;5.80;;;7.10;99.90;;;;;;5039472;28;20040;-68
2022/11/17 07:54:19;;;;;;;9.50;6.95;;;7.10;99.90;;;;;;5060096;28;20045;-67
2022/11/17 07:56:46;;;;;;;7.70;6.90;;;7.10;99.90;;;;;;5060590;28;20143;-68
2022/11/17 07:59:11;;;;;;;7.07;6.38;;;7.10;99.90;;;;;;5067148;28;20040;-69
2022/11/17 08:01:38;;;;;;;7.72;7.03;;;7.20;99.90;;;;;;5056639;28;20500;-69
2022/11/17 08:04:04;;;;;;;7.50;6.60;;;7.10;99.90;;;;;;5060492;28;20072;-70
2022/11/17 08:06:29;;;;;;;7.68;6.88;;;7.00;99.90;;;;;;5038576;28;20076;-69
2022/11/17 08:08:55;;;;;;;11.63;7.30;;;7.00;99.90;;;;;;5046041;28;20127;-68
2022/11/17 08:11:21;;;;;;;7.32;6.63;;;7.00;99.90;;;;;;5041889;28;20060;-69
2022/11/17 08:13:46;;;;;;;8.85;7.13;;;7.10;99.90;;;;;;5051165;28;20041;-67
2022/11/17 08:16:13;;;;;;;8.88;7.57;;;7.00;99.90;;;;;;5060435;28;20503;-68
2022/11/17 08:18:39;;;;;;;10.07;7.28;;;7.00;99.90;;;;;;5046489;28;20040;-69
2022/11/17 08:21:06;;;;;;;8.68;7.88;;;7.00;99.90;;;;;;5043285;28;20091;-67
2022/11/17 08:23:33;;;;;;;8.52;7.63;;;7.00;99.90;;;;;;5061305;28;20037;-68
2022/11/17 08:26:00;;;;;;;8.95;8.05;;;7.00;99.90;;;;;;5043747;28;20045;-69
2022/11/17 08:28:32;;;;;;;10.55;8.32;;;7.00;99.90;;;;;;5044961;28;20049;-68
2022/11/17 08:31:07;;;;;;;10.43;7.25;;;7.00;99.90;;;;;;5042071;28;20536;-68
2022/11/17 08:33:38;;;;;;;;;;;7.00;99.90;;;;;;5042799;28;20040;-68
2022/11/17 08:36:11;;;;;;;8.57;7.38;;;7.00;99.90;;;;;;5044359;28;19921;-68
2022/11/17 08:38:45;;;;;;;8.50;7.70;;;7.00;99.90;;;;;;5059082;28;20546;-69
2022/11/17 08:41:18;;;;;;;9.20;8.18;;;6.90;99.90;;;;;;5043044;28;20047;-70
2022/11/17 08:43:52;;;;;;;9.43;8.18;;;7.00;99.90;;;;;;5037500;28;20335;-69
2022/11/17 08:46:21;;;;;;;8.20;7.28;;;7.00;99.90;;;;;;5039788;28;20857;-67
2022/11/17 08:48:46;;;;;;;9.45;8.45;;;7.00;99.90;;;;;;5044439;28;20035;-68
2022/11/17 08:51:13;;;;;;;8.98;7.47;;;7.00;99.90;;;;;;5045496;28;20512;-68
2022/11/17 08:53:39;;;;;;;9.75;7.88;;;7.10;99.90;;;;;;5064995;28;20049;-67
2022/11/17 08:56:06;;;;;;;9.43;7.45;;;7.00;99.90;;;;;;5063078;28;20060;-70
2022/11/17 08:58:37;;;;;;;8.82;7.93;;;7.00;99.90;;;;;;5023203;28;20408;-68
2022/11/17 09:01:09;;;;;;;8.88;7.72;;;7.10;99.90;;;;;;5055521;28;20108;-68
2022/11/17 09:03:35;;;;;;;9.02;8.10;;;7.00;99.90;;;;;;5043709;28;20390;-67
2022/11/17 09:06:03;;;;;;;10.48;7.40;;;7.10;99.90;;;;;;5044311;28;20373;-68
2022/11/17 09:08:29;;;;;;;8.75;7.45;;;7.10;99.90;;;;;;5038948;28;20049;-67
2022/11/17 09:10:55;;;;;;;8.43;7.60;;;7.10;99.90;;;;;;5048388;28;20033;-67
2022/11/17 09:13:21;;;;;;;7.80;7.00;;;7.10;99.90;;;;;;5041540;28;20057;-68
2022/11/17 09:15:46;;;;;;;8.93;7.55;;;7.20;99.90;;;;;;5047734;28;20041;-66
2022/11/17 09:18:12;;;;;;;11.25;7.70;;;7.10;99.90;;;;;;5058736;28;20064;-69
2022/11/17 09:20:38;;;;;;;8.75;7.15;;;7.10;99.90;;;;;;5036221;28;20045;-68
2022/11/17 09:23:04;;;;;;;8.35;7.45;;;7.20;99.90;;;;;;5044164;28;20045;-67
2022/11/17 09:25:30;;;;;;;7.38;6.65;;;7.10;99.90;;;;;;5046715;28;20048;-70
2022/11/17 09:27:56;;;;;;;9.52;7.55;;;7.10;99.90;;;;;;5046758;28;20029;-67
2022/11/17 09:30:22;;;;;;;8.63;7.63;;;7.10;99.90;;;;;;5043707;28;20117;-67
2022/11/17 09:32:48;;;;;;;7.32;6.60;;;7.10;99.90;;;;;;5056079;28;20132;-67
2022/11/17 09:35:14;;;;;;;7.63;6.82;;;7.10;99.90;;;;;;5062199;28;20500;-67
2022/11/17 09:37:40;;;;;;;7.82;6.95;;;7.10;99.90;;;;;;5058282;28;20075;-67
2022/11/17 09:40:09;;;;;;;8.00;7.10;;;7.10;99.90;;;;;;5044607;28;20037;-67
2022/11/17 09:42:39;;;;;;;9.48;7.50;;;7.10;99.90;;;;;;5051756;28;20492;-68
2022/11/17 09:45:19;;;;;;;6.78;6.13;;;7.20;99.90;;;;;;5057715;28;20037;-67
2022/11/17 09:48:23;;;;;;;6.72;6.07;;;7.20;99.90;;;;;;5042334;28;20094;-67
2022/11/17 09:50:54;;;;;;;7.50;6.45;;;7.10;99.90;;;;;;5011857;28;20040;-67
2022/11/17 09:53:48;;;;;;;8.85;6.43;;;7.20;99.90;;;;;;5044071;28;20044;-66
2022/11/17 09:56:15;;;;;;;6.80;6.10;;;7.20;99.90;;;;;;5060655;28;20060;-67
2022/11/17 09:59:03;;;;;;;7.28;6.25;;;7.20;99.90;;;;;;5034170;28;20041;-67
2022/11/17 10:01:29;;;;;;;6.75;6.05;;;7.30;99.90;;;;;;5058295;28;20044;-66
2022/11/17 10:03:57;;;;;;;7.50;6.63;;;7.30;99.90;;;;;;5060305;28;20542;-65
2022/11/17 10:06:30;;;;;;;8.20;6.25;;;7.30;99.90;;;;;;5060632;28;20738;-67
2022/11/17 10:09:02;;;;;;;6.90;5.97;;;7.30;99.90;;;;;;5055098;28;20040;-66
2022/11/17 10:11:31;;;;;;;9.63;6.93;;;7.30;99.90;;;;;;5057255;28;20388;-66
2022/11/17 10:14:19;;;;;;;7.78;6.65;;;7.30;99.90;;;;;;5061634;28;20039;-66
2022/11/17 10:16:55;;;;;;;6.90;6.20;;;7.40;99.90;;;;;;5038587;28;20113;-67
2022/11/17 10:19:26;;;;;;;6.45;5.85;;;7.40;99.90;;;;;;5057513;28;20052;-67
2022/11/17 10:22:00;;;;;;;8.02;6.50;;;7.50;99.90;;;;;;5057824;28;20446;-66
2022/11/17 10:24:40;;;;;;;6.15;5.50;;;7.40;99.90;;;;;;5061912;28;20476;-68
2022/11/17 10:27:24;;;;;;;7.32;6.35;;;7.40;99.90;;;;;;5058206;28;20037;-66
2022/11/17 10:30:02;;;;;;;7.47;6.47;;;7.40;99.90;;;;;;5056347;28;20394;-66
2022/11/17 10:32:36;;;;;;;8.27;6.30;;;7.40;99.90;;;;;;5060085;28;20101;-67
2022/11/17 10:35:33;;;;;;;6.38;5.70;;;7.50;99.90;;;;;;5059275;28;20105;-66
2022/11/17 10:38:16;;;;;;;9.40;6.60;;;7.60;99.90;;;;;;5047885;28;20441;-66
2022/11/17 10:40:41;;;;;;;6.20;5.45;;;7.50;99.90;;;;;;5060518;28;20414;-69
2022/11/17 10:43:10;;;;;;;9.27;6.85;;;7.60;99.90;;;;;;5043263;28;20131;-66
2022/11/17 10:45:46;;;;;;;8.40;6.70;;;7.70;99.90;;;;;;5056431;28;20036;-66
2022/11/17 10:48:26;;;;;;;8.63;7.22;;;7.70;99.90;;;;;;5047449;28;20060;-66
2022/11/17 10:50:57;;;;;;;7.78;7.00;;;7.80;99.90;;;;;;5058076;28;20039;-66
2022/11/17 10:53:30;;;;;;;8.48;7.28;;;7.80;99.90;;;;;;5063032;28;20123;-67
2022/11/17 10:56:04;;;;;;;7.18;6.47;;;7.80;99.90;;;;;;5055544;28;20191;-66
2022/11/17 10:58:31;;;;;;;;;;;7.80;99.90;;;;;;5060323;28;20520;-66
2022/11/17 11:01:01;;;;;;;5.95;5.35;;;7.80;99.90;;;;;;5060801;28;20296;-66
2022/11/17 11:03:33;;;;;;;8.45;5.93;;;7.90;99.90;;;;;;5059297;28;20076;-66
2022/11/17 11:06:30;;;;;;;5.97;5.25;;;7.90;99.90;;;;;;5058712;28;20037;-66
2022/11/17 11:09:04;;;;;;;6.03;5.43;;;7.90;99.90;;;;;;5042870;28;20441;-66
2022/11/17 11:11:48;;;;;;;5.60;5.10;;;7.90;99.90;;;;;;5063921;28;20103;-67
2022/11/17 11:14:39;;;;;;;6.85;5.95;;;7.80;99.90;;;;;;5062922;28;20377;-67
2022/11/17 11:17:15;;;;;;;10.32;5.60;;;7.90;99.90;;;;;;5058950;28;20040;-65
2022/11/17 11:19:44;;;;;;;10.52;5.95;;;7.80;99.90;;;;;;5068050;28;20170;-67
2022/11/17 11:22:21;;;;;;;7.57;5.57;;;7.90;99.90;;;;;;5061397;28;20037;-66
2022/11/17 11:24:56;;;;;;;4.97;4.47;;;7.90;99.90;;;;;;5070736;28;20040;-65
2022/11/17 11:27:50;;;;;;;6.63;5.45;;;7.90;99.90;;;;;;5037104;28;20056;-65
2022/11/17 11:30:18;;;;;;;5.27;4.63;;;8.00;99.90;;;;;;5064689;28;20094;-67
2022/11/17 11:33:13;;;;;;;6.28;4.18;;;8.00;99.90;;;;;;5065511;28;20044;-66
2022/11/17 11:35:46;;;;;;;5.03;4.50;;;8.00;99.90;;;;;;5064813;28;20036;-66
2022/11/17 11:38:21;;;;;;;6.68;4.00;;;8.00;99.90;;;;;;5062146;28;20518;-65
2022/11/17 11:41:23;;;;;;;6.20;4.90;;;8.00;99.90;;;;;;5066319;28;20041;-65
2022/11/17 11:43:58;;;;;;;7.35;5.32;;;8.10;99.90;;;;;;5063936;28;20179;-65
2022/11/17 11:46:39;;;;;;;7.78;5.63;;;8.10;99.90;;;;;;5060444;28;20088;-65
2022/11/17 11:49:31;;;;;;;8.07;5.82;;;8.20;99.90;;;;;;5062072;28;20480;-67
2022/11/17 11:51:58;;;;;;;8.45;5.93;;;8.20;99.90;;;;;;5053084;28;20045;-66
2022/11/17 11:54:35;;;;;;;9.18;6.18;;;8.20;99.90;;;;;;5064207;28;20063;-67
2022/11/17 11:57:01;;;;;;;7.28;5.13;;;8.20;99.90;;;;;;5060117;28;20053;-65
2022/11/17 11:59:42;;;;;;;7.68;4.97;;;8.30;99.90;;;;;;5063222;28;20094;-66
2022/11/17 12:02:16;;;;;;;9.02;5.50;;;8.30;99.90;;;;;;5061959;28;20071;-66
2022/11/17 12:05:19;;;;;;;6.15;4.57;;;8.40;99.90;;;;;;5058965;28;20046;-66
2022/11/17 12:08:00;;;;;;;9.18;5.15;;;8.40;99.90;;;;;;5061786;28;20033;-65
2022/11/17 12:10:31;;;;;;;7.32;5.38;;;8.40;99.90;;;;;;5061883;28;21223;-66
2022/11/17 12:12:58;;;;;;;7.45;4.80;;;8.40;99.90;;;;;;5060132;28;20037;-66
2022/11/17 12:15:24;;;;;;;6.78;5.90;;;8.50;99.90;;;;;;5059593;28;20392;-66
2022/11/17 12:18:00;;;;;;;6.65;5.53;;;8.60;99.90;;;;;;5062273;28;20364;-66
2022/11/17 12:20:57;;;;;;;8.60;5.97;;;8.60;99.90;;;;;;5061351;28;20508;-66
2022/11/17 12:23:41;;;;;;;9.88;6.07;;;8.70;99.90;;;;;;5061913;28;20040;-65
2022/11/17 12:26:18;;;;;;;14.60;7.20;;;8.70;99.90;;;;;;5063738;28;20032;-66
2022/11/17 12:28:44;;;;;;;8.90;5.75;;;8.80;99.90;;;;;;5060897;28;20373;-66
2022/11/17 12:31:34;;;;;;;11.30;7.65;;;8.90;99.90;;;;;;5047551;28;20043;-66
2022/11/17 12:33:59;;;;;;;10.05;6.13;;;9.00;99.90;;;;;;5057899;28;20485;-66
2022/11/17 12:36:31;;;;;;;8.57;6.97;;;9.00;99.90;;;;;;5047001;28;20051;-66
2022/11/17 12:38:58;;;;;;;10.40;6.30;;;9.10;99.90;;;;;;5061600;28;20051;-66
2022/11/17 12:41:48;;;;;;;10.05;6.32;;;9.20;99.90;;;;;;5056551;28;20050;-66
2022/11/17 12:44:32;;;;;;;10.90;4.75;;;9.30;99.90;;;;;;5059506;28;20045;-66
2022/11/17 12:47:14;;;;;;;8.30;4.30;;;9.40;99.90;;;;;;5047172;28;20044;-65
2022/11/17 12:49:58;;;;;;;10.15;4.03;;;9.50;99.90;;;;;;5060335;28;20049;-66
2022/11/17 12:52:44;;;;;;;6.57;3.00;;;9.50;99.90;;;;;;5063330;28;20116;-65
2022/11/17 12:55:28;;;;;;;8.38;2.97;;;9.60;99.90;;;;;;5028241;28;20056;-66
2022/11/17 12:58:27;;;;;;;7.60;3.03;;;9.60;99.90;;;;;;5064172;28;20078;-65
2022/11/17 13:01:04;;;;;;;7.93;2.60;;;9.70;99.90;;;;;;5060606;28;20063;-66
2022/11/17 13:03:42;;;;;;;7.57;2.00;;;9.70;99.90;;;;;;5044093;28;20511;-66
2022/11/17 13:06:14;;;;;;;10.05;2.35;;;9.70;99.90;;;;;;5060852;28;20033;-66
2022/11/17 13:08:53;;;;;;;10.80;2.03;;;9.80;99.90;;;;;;5062720;28;20037;-67
2022/11/17 13:11:18;;;;;;;6.10;1.70;;;9.80;99.90;;;;;;5056889;28;20056;-65
2022/11/17 13:13:45;;;;;;;4.47;1.30;;;9.80;99.90;;;;;;5060804;28;20036;-67
2022/11/17 13:16:20;;;;;;;5.05;1.60;;;9.90;99.90;;;;;;5060081;28;20086;-65
2022/11/17 13:18:47;;;;;;;8.88;2.17;;;9.90;99.90;;;;;;5061413;28;20055;-66
2022/11/17 13:21:29;;;;;;;8.63;2.00;;;9.90;99.90;;;;;;5058878;28;20037;-66
2022/11/17 13:23:56;;;;;;;8.90;2.10;;;9.90;99.90;;;;;;5062530;28;20037;-66
2022/11/17 13:26:24;;;;;;;7.47;1.95;;;9.90;99.90;;;;;;5065045;28;20041;-66
2022/11/17 13:29:06;;;;;;;6.10;2.08;;;9.90;99.90;;;;;;5057775;28;20040;-66
2022/11/17 13:31:32;;;;;;;5.20;1.65;;;9.90;99.90;;;;;;5041933;28;20127;-66
2022/11/17 13:34:17;;;;;;;6.22;1.92;;;9.90;99.90;;;;;;5047402;28;20044;-66
2022/11/17 13:36:53;;;;;;;9.30;2.00;;;10.00;99.90;;;;;;5062155;28;20028;-67
2022/11/17 13:39:19;;;;;;;4.45;1.40;;;10.00;99.90;;;;;;5048366;28;20045;-67